Melville, Canada
Current Conditions -  °F | °C
As of 10:01 PM on Saturday 22 Nov 2014 (Local Time) from CYQV Reporting Station
Overcast Overcast  
Wind Chill:   Ceiling: 1100
Heat Index: 21°   Visibility: 9mi
Dew Point: 19°   Wind: 17mph
Humidity: 93%   Direction: 80°E
Pressure: 29.25"   Gusts: 23mph
Location:  50.93°N, 102.8°W
Report Text: CYQV 230401Z AUTO 08015G20KT 9SM OVC011 M06/M07 A2925 RMK SLP933
Loading
Personal Weather Stations






























Interactive Weather Map New forecast layout! Learn more

10-Day Weather Forecast

Advertisements
Track Severe Weather on mobile